Terminal Aerodrome Forecast
Issued by NWS Atlanta, GA

Home | Current Version | Previous Version | Text Only | Print | Product List | Glossary On
Versions: 1 2 3 4 5 6 7 8 9 10 11
254
FTUS42 KFFC 120542
TAFMCN
TAF
KMCN 120542Z 1206/1306 00000KT P6SM BKN035
     FM120800 00000KT P6SM BKN020
     FM121500 30004KT P6SM BKN025
     FM121800 28007KT P6SM SCT030
     FM122100 27011G20KT P6SM SCT040
     FM130000 29007KT P6SM FEW060=

USA.gov is the U.S. government's official web portal to all federal, state and local government web resources and services.